Terminal Aerodrome Forecast
Issued by NWS Central Illinois

Current Version | Previous Version | Text Only | Print | Product List | Glossary On
Versions: 1 2 3 4 5 6 7 8 9 10 11 12 13 14 15 16 17 18 19
000
FTUS43 KILX 232100 AAA
TAFSPI
TAF AMD
KSPI 232105Z 2321/2418 03012G17KT P6SM SCT045
      TEMPO 2321/2322 BKN040
     FM240000 03008KT P6SM FEW050
     FM240200 05005KT P6SM SKC
     FM241500 04007KT P6SM FEW045=

USA.gov is the U.S. government's official web portal to all federal, state and local government web resources and services.